Time;durP1;ratioP1;P1;durP2;ratioP2;P2;SDS_P1;SDS_P2;PMS_P1;PMS_P2;Temp;Humidity;BMP_temperature;BMP_pressure;BME280_temperature;BME280_humidity;BME280_pressure;Samples;Min_cycle;Max_cycle;Signal;HPM_P1;HPM_P2
2023/01/30 00:01:18;;;;;;;15.30;11.15;;;7.30;79.40;;;;;;5095745;28;20115;-81
2023/01/30 00:03:44;;;;;;;13.68;10.25;;;7.30;79.30;;;;;;5095745;28;20477;-81
2023/01/30 00:06:10;;;;;;;14.13;10.23;;;7.30;79.30;;;;;;5096329;28;20064;-79
2023/01/30 00:08:36;;;;;;;13.48;10.45;;;7.30;79.30;;;;;;5078452;28;20036;-79
2023/01/30 00:11:07;;;;;;;13.63;9.75;;;7.30;79.30;;;;;;5077820;28;20031;-82
2023/01/30 00:13:33;;;;;;;14.80;10.50;;;7.40;79.30;;;;;;5077786;28;20024;-83
2023/01/30 00:15:58;;;;;;;12.70;9.70;;;7.30;79.20;;;;;;5061774;28;20338;-82
2023/01/30 00:18:24;;;;;;;14.20;10.60;;;7.30;79.30;;;;;;5095682;28;20418;-81
2023/01/30 00:21:10;;;;;;;13.93;10.63;;;7.40;79.30;;;;;;5060922;28;20032;-82
2023/01/30 00:23:37;;;;;;;13.45;10.43;;;7.40;79.40;;;;;;5060519;28;20024;-80
2023/01/30 00:26:04;;;;;;;14.23;10.50;;;7.40;79.30;;;;;;5095635;28;20070;-82
2023/01/30 00:28:30;;;;;;;15.68;10.98;;;7.40;79.30;;;;;;5077771;28;20032;-81
2023/01/30 00:30:56;;;;;;;15.13;11.38;;;7.40;79.30;;;;;;5060559;28;20116;-81
2023/01/30 00:33:24;;;;;;;12.70;9.20;;;7.40;79.30;;;;;;5060911;28;20024;-82
2023/01/30 00:35:52;;;;;;;14.95;10.45;;;7.40;79.30;;;;;;5077142;28;20428;-81
2023/01/30 00:38:18;;;;;;;15.65;12.10;;;7.40;79.30;;;;;;5076882;28;20139;-81
2023/01/30 00:40:45;;;;;;;14.30;11.00;;;7.40;79.30;;;;;;5077684;28;20063;-82
2023/01/30 00:48:42;;;;;;;13.95;10.23;;;7.50;79.40;;;;;;5095039;28;20491;-82
2023/01/30 00:51:07;;;;;;;13.38;10.80;;;7.50;79.40;;;;;;5043935;28;20036;-81
2023/01/30 00:53:33;;;;;;;13.30;10.38;;;7.50;79.40;;;;;;5077038;28;20032;-83
2023/01/30 00:55:59;;;;;;;13.63;10.50;;;7.50;79.40;;;;;;5094872;28;20044;-81
2023/01/30 00:58:25;;;;;;;14.88;10.57;;;7.50;79.40;;;;;;5060778;28;20032;-83
2023/01/30 01:00:51;;;;;;;15.80;11.18;;;7.50;79.40;;;;;;5061189;28;20032;-83
2023/01/30 01:03:18;;;;;;;14.20;10.80;;;7.50;79.40;;;;;;5094058;28;20068;-82
2023/01/30 01:05:44;;;;;;;14.57;11.10;;;7.50;79.40;;;;;;5093880;28;20484;-83
2023/01/30 01:08:13;;;;;;;15.27;11.10;;;7.50;80.00;;;;;;5044709;28;20032;-81
2023/01/30 01:10:39;;;;;;;14.13;10.88;;;7.60;79.50;;;;;;5060356;28;20022;-80
2023/01/30 01:13:05;;;;;;;13.75;11.02;;;7.60;79.50;;;;;;5093782;28;20481;-82
2023/01/30 01:15:32;;;;;;;12.95;11.00;;;7.60;79.50;;;;;;5093936;28;20127;-81
2023/01/30 01:17:58;;;;;;;13.20;10.45;;;7.60;79.50;;;;;;5077165;28;20036;-79
2023/01/30 01:20:25;;;;;;;14.45;10.63;;;7.60;79.50;;;;;;5095109;28;20024;-83
2023/01/30 01:22:55;;;;;;;14.63;10.60;;;7.60;79.50;;;;;;5077581;28;20078;-82
2023/01/30 01:25:22;;;;;;;13.63;11.02;;;7.60;79.50;;;;;;5060344;28;20052;-82
2023/01/30 01:27:49;;;;;;;14.55;11.30;;;7.60;79.40;;;;;;5060354;28;20542;-82
2023/01/30 01:30:16;;;;;;;13.90;11.05;;;7.60;79.50;;;;;;5060380;28;20031;-81
2023/01/30 01:32:43;;;;;;;14.85;12.02;;;7.70;79.50;;;;;;5076955;28;20111;-81
2023/01/30 01:35:09;;;;;;;15.05;11.55;;;7.70;79.50;;;;;;5076967;28;20036;-82
2023/01/30 01:37:36;;;;;;;13.93;11.35;;;7.60;79.40;;;;;;5092896;28;20028;-82
2023/01/30 01:42:47;;;;;;;14.00;9.85;;;7.70;79.50;;;;;;5079215;28;20040;-80
2023/01/30 01:45:20;;;;;;;15.57;11.80;;;7.70;79.50;;;;;;5076504;28;20422;-81
2023/01/30 01:47:58;;;;;;;13.35;10.88;;;7.70;79.50;;;;;;5062617;28;20123;-82
2023/01/30 01:50:46;;;;;;;14.63;11.93;;;7.70;79.60;;;;;;5081036;28;20502;-83
2023/01/30 01:53:16;;;;;;;14.02;10.57;;;7.70;79.50;;;;;;5063233;28;20503;-83
2023/01/30 01:55:44;;;;;;;14.65;11.10;;;7.70;79.50;;;;;;5064469;28;20145;-79
2023/01/30 01:58:18;;;;;;;14.02;10.52;;;7.80;79.60;;;;;;5081387;28;20028;-82
2023/01/30 02:00:47;;;;;;;13.63;11.40;;;7.80;79.60;;;;;;5098949;28;20027;-81
2023/01/30 02:03:19;;;;;;;13.10;11.15;;;7.80;79.60;;;;;;5097525;28;20020;-82
2023/01/30 02:05:49;;;;;;;13.95;11.20;;;7.80;79.60;;;;;;5079952;28;20114;-83
2023/01/30 02:08:20;;;;;;;13.45;10.82;;;7.80;79.60;;;;;;5080485;28;20036;-81
2023/01/30 02:11:03;;;;;;;14.20;11.18;;;7.90;79.70;;;;;;5063562;28;20028;-82
2023/01/30 02:13:30;;;;;;;13.57;10.27;;;7.80;79.70;;;;;;5079822;28;20093;-82
2023/01/30 02:15:58;;;;;;;14.20;11.48;;;7.80;79.60;;;;;;5098177;28;20052;-82
2023/01/30 02:18:25;;;;;;;13.88;10.88;;;7.80;79.60;;;;;;5063910;28;20024;-82
2023/01/30 02:21:10;;;;;;;13.98;11.07;;;7.90;79.70;;;;;;5079597;28;20050;-82
2023/01/30 02:23:48;;;;;;;12.75;10.32;;;7.90;79.80;;;;;;5079997;28;20016;-82
2023/01/30 02:26:51;;;;;;;13.60;10.35;;;7.90;79.70;;;;;;5080610;28;20361;-83
2023/01/30 02:29:39;;;;;;;12.70;10.35;;;7.90;79.80;;;;;;5096782;28;20394;-82
2023/01/30 02:32:26;;;;;;;12.98;10.40;;;7.90;79.70;;;;;;5097711;28;20084;-80
2023/01/30 02:35:13;;;;;;;11.25;9.45;;;7.90;79.80;;;;;;5096391;28;20039;-82
2023/01/30 02:37:59;;;;;;;12.85;10.57;;;7.90;79.80;;;;;;5098296;28;20028;-82
2023/01/30 02:41:00;;;;;;;11.93;10.02;;;7.90;79.70;;;;;;5061850;28;20044;-81
2023/01/30 02:43:54;;;;;;;11.02;9.23;;;7.90;79.80;;;;;;5079694;28;20032;-83
2023/01/30 02:46:35;;;;;;;11.43;9.32;;;7.90;79.70;;;;;;5097365;28;20063;-81
2023/01/30 02:49:17;;;;;;;12.82;9.95;;;7.90;79.70;;;;;;5079598;28;20024;-83
2023/01/30 02:51:46;;;;;;;12.63;10.13;;;8.00;79.80;;;;;;5079497;28;20028;-83
2023/01/30 02:54:14;;;;;;;12.35;10.27;;;8.00;79.80;;;;;;5080023;28;20020;-83
2023/01/30 02:56:51;;;;;;;12.15;9.65;;;8.00;79.80;;;;;;5096254;28;20020;-81
2023/01/30 02:59:40;;;;;;;12.25;9.40;;;8.00;79.90;;;;;;5078400;28;20024;-83
2023/01/30 03:02:24;;;;;;;12.23;9.93;;;8.00;79.90;;;;;;5079003;28;20047;-81
2023/01/30 03:05:20;;;;;;;11.37;9.10;;;8.00;79.80;;;;;;5078917;28;20039;-84
2023/01/30 03:07:54;;;;;;;11.20;8.63;;;8.00;79.80;;;;;;5079464;28;20032;-82
2023/01/30 03:10:44;;;;;;;10.95;8.73;;;8.00;79.70;;;;;;5079898;28;20032;-82
2023/01/30 03:13:18;;;;;;;10.38;8.38;;;8.00;79.80;;;;;;5063036;28;20070;-84
2023/01/30 03:16:26;;;;;;;11.05;8.73;;;8.00;79.80;;;;;;5079494;28;20115;-84
2023/01/30 03:18:53;;;;;;;9.68;7.97;;;8.10;79.90;;;;;;5018200;28;20025;-84
2023/01/30 03:21:19;;;;;;;10.55;7.53;;;8.10;79.80;;;;;;5001769;28;20161;-83
2023/01/30 03:23:45;;;;;;;8.70;6.88;;;8.10;79.80;;;;;;5040766;28;20122;-85
2023/01/30 03:26:17;;;;;;;9.32;7.63;;;8.10;79.80;;;;;;5078714;28;20032;-82
2023/01/30 03:28:46;;;;;;;9.15;7.72;;;8.20;80.00;;;;;;5078995;28;20040;-82
2023/01/30 03:31:11;;;;;;;8.70;7.47;;;8.10;79.90;;;;;;5078838;28;20116;-81
2023/01/30 03:33:37;;;;;;;8.65;6.88;;;8.20;79.90;;;;;;5095626;28;20074;-83
2023/01/30 03:36:03;;;;;;;8.70;6.95;;;8.20;79.90;;;;;;5078833;28;20054;-82
2023/01/30 03:38:29;;;;;;;8.88;7.03;;;8.20;79.90;;;;;;5061482;28;20032;-83
2023/01/30 03:40:56;;;;;;;9.02;7.13;;;8.20;79.90;;;;;;5079281;28;20024;-83
2023/01/30 03:43:22;;;;;;;8.80;7.07;;;8.20;79.90;;;;;;5061864;28;20058;-84
2023/01/30 03:45:47;;;;;;;7.93;6.53;;;8.20;79.90;;;;;;5078214;28;20039;-83
2023/01/30 03:48:13;;;;;;;7.68;6.47;;;8.20;79.90;;;;;;5078258;28;20391;-84
2023/01/30 03:50:39;;;;;;;7.97;6.68;;;8.20;79.90;;;;;;5061798;28;20028;-84
2023/01/30 03:53:05;;;;;;;7.90;6.57;;;8.30;79.90;;;;;;5078502;28;20051;-83
2023/01/30 03:55:31;;;;;;;7.10;5.65;;;8.30;80.00;;;;;;5062181;28;20373;-83
2023/01/30 03:57:57;;;;;;;7.78;6.00;;;8.30;79.90;;;;;;5061723;28;20487;-83
2023/01/30 04:00:24;;;;;;;6.40;5.35;;;8.30;79.90;;;;;;5078128;28;20028;-83
2023/01/30 04:02:52;;;;;;;7.13;5.50;;;8.30;80.00;;;;;;5078935;28;20358;-84
2023/01/30 04:05:19;;;;;;;7.32;5.65;;;8.30;79.90;;;;;;5077866;28;20031;-84
2023/01/30 04:07:50;;;;;;;6.50;5.10;;;8.40;80.00;;;;;;5078301;28;20043;-81
2023/01/30 04:10:18;;;;;;;8.45;6.18;;;8.30;79.90;;;;;;5077595;28;20036;-81
2023/01/30 04:12:45;;;;;;;6.70;5.47;;;8.30;79.90;;;;;;5077674;28;20031;-83
2023/01/30 04:15:11;;;;;;;6.60;5.28;;;8.40;80.00;;;;;;5078378;28;20468;-83
2023/01/30 04:17:51;;;;;;;7.25;5.50;;;8.40;80.00;;;;;;5077378;28;20020;-82
2023/01/30 04:20:46;;;;;;;5.83;4.73;;;8.40;79.90;;;;;;5064822;28;20483;-84
2023/01/30 04:23:14;;;;;;;7.00;4.70;;;8.40;79.90;;;;;;5077692;28;20366;-84
2023/01/30 04:25:40;;;;;;;6.75;4.55;;;8.40;79.90;;;;;;5061177;28;20082;-84
2023/01/30 04:28:08;;;;;;;6.43;4.50;;;8.40;80.00;;;;;;5078152;28;20047;-82
2023/01/30 04:30:36;;;;;;;6.20;4.63;;;8.40;80.00;;;;;;5077727;28;20484;-83
2023/01/30 04:33:20;;;;;;;6.17;4.90;;;8.50;80.00;;;;;;5080746;28;20043;-82
2023/01/30 04:35:58;;;;;;;5.95;4.13;;;8.50;80.00;;;;;;5077594;28;20036;-84
2023/01/30 04:38:26;;;;;;;4.75;3.80;;;8.50;80.00;;;;;;5077286;28;20060;-83
2023/01/30 04:40:54;;;;;;;5.72;4.20;;;8.50;80.00;;;;;;5094402;28;20036;-79
2023/01/30 04:43:21;;;;;;;5.30;4.10;;;8.50;80.00;;;;;;5077683;28;20059;-83
2023/01/30 04:46:07;;;;;;;5.43;3.97;;;8.50;80.00;;;;;;5077407;28;20103;-84
2023/01/30 04:48:33;;;;;;;5.70;4.03;;;8.50;80.00;;;;;;5077119;28;20066;-84
2023/01/30 04:51:00;;;;;;;4.70;3.72;;;8.50;80.00;;;;;;5078114;28;20024;-84
2023/01/30 04:53:27;;;;;;;5.57;4.28;;;8.50;80.00;;;;;;5077492;28;20028;-84
2023/01/30 04:55:52;;;;;;;5.72;3.45;;;8.50;80.00;;;;;;5077389;28;20131;-81
2023/01/30 04:58:19;;;;;;;5.93;4.18;;;8.60;80.10;;;;;;5060844;28;20234;-84
2023/01/30 05:00:46;;;;;;;5.22;3.90;;;8.60;80.00;;;;;;5077414;28;20087;-84
2023/01/30 05:03:12;;;;;;;4.35;3.42;;;8.60;80.00;;;;;;5077337;28;20024;-84
2023/01/30 05:05:38;;;;;;;5.53;3.70;;;8.60;80.00;;;;;;5077745;28;20456;-84
2023/01/30 05:08:07;;;;;;;4.75;3.75;;;8.60;80.00;;;;;;5077166;28;20177;-84
2023/01/30 05:10:33;;;;;;;5.25;3.80;;;8.60;80.10;;;;;;5094983;28;20032;-84
2023/01/30 05:13:05;;;;;;;5.20;3.40;;;8.60;80.00;;;;;;5060156;28;20161;-84
2023/01/30 05:15:32;;;;;;;4.72;3.92;;;8.60;80.00;;;;;;5077007;28;20036;-85
2023/01/30 05:17:58;;;;;;;4.28;3.50;;;8.70;80.70;;;;;;5077075;28;20077;-83
2023/01/30 05:20:24;;;;;;;5.25;3.65;;;8.70;80.70;;;;;;5076789;28;20439;-82
2023/01/30 05:22:49;;;;;;;5.47;3.75;;;8.70;80.10;;;;;;5075750;28;20020;-83
2023/01/30 05:25:15;;;;;;;5.25;3.42;;;8.70;80.10;;;;;;5076599;28;20110;-83
2023/01/30 05:27:41;;;;;;;5.55;4.00;;;8.70;80.10;;;;;;5059859;28;20119;-84
2023/01/30 05:30:07;;;;;;;4.88;3.55;;;8.70;80.10;;;;;;5059996;28;20039;-83
2023/01/30 05:32:33;;;;;;;4.93;3.20;;;8.70;80.20;;;;;;5094679;28;20028;-84
2023/01/30 05:34:59;;;;;;;4.88;3.40;;;8.70;80.10;;;;;;5076752;28;20042;-80
2023/01/30 05:37:25;;;;;;;5.35;3.22;;;8.80;80.20;;;;;;5076633;28;20472;-82
2023/01/30 05:39:51;;;;;;;4.93;3.60;;;8.70;80.10;;;;;;5060940;28;20059;-84
2023/01/30 05:42:16;;;;;;;4.93;3.17;;;8.80;80.10;;;;;;5054140;28;20385;-84
2023/01/30 05:44:42;;;;;;;6.25;3.47;;;8.80;80.10;;;;;;5054128;28;20394;-87
2023/01/30 05:47:08;;;;;;;5.88;3.38;;;8.80;80.10;;;;;;5036630;28;20037;-83
2023/01/30 05:49:34;;;;;;;4.68;2.88;;;8.80;80.10;;;;;;5054628;28;20374;-84
2023/01/30 05:51:59;;;;;;;4.15;2.92;;;8.80;80.10;;;;;;5053390;28;20473;-84
2023/01/30 05:54:25;;;;;;;5.22;3.72;;;8.80;80.00;;;;;;5036391;28;20168;-81
2023/01/30 05:56:51;;;;;;;4.57;3.05;;;8.80;80.00;;;;;;5019624;28;20025;-81
2023/01/30 05:59:20;;;;;;;3.97;2.83;;;8.90;80.10;;;;;;5036033;28;20124;-82
2023/01/30 06:01:46;;;;;;;5.85;2.95;;;8.90;80.10;;;;;;5053261;28;20038;-83
2023/01/30 06:04:11;;;;;;;4.18;3.03;;;8.80;80.00;;;;;;5053133;28;20473;-84
2023/01/30 06:06:37;;;;;;;3.45;2.60;;;8.90;80.00;;;;;;5020852;28;20067;-83
2023/01/30 06:09:03;;;;;;;4.60;3.08;;;8.90;80.00;;;;;;5036554;28;20033;-82
2023/01/30 06:11:29;;;;;;;4.28;2.50;;;8.90;80.00;;;;;;5036737;28;20417;-83
2023/01/30 06:13:55;;;;;;;5.60;2.97;;;8.90;80.00;;;;;;5036597;28;20033;-81
2023/01/30 06:16:20;;;;;;;3.17;2.55;;;8.90;80.60;;;;;;5052756;28;20044;-81
2023/01/30 06:18:46;;;;;;;4.22;2.42;;;8.90;80.00;;;;;;5053533;28;20033;-89
2023/01/30 06:21:14;;;;;;;4.68;2.72;;;8.90;79.90;;;;;;5036979;28;20029;-87
2023/01/30 06:23:41;;;;;;;3.92;2.30;;;8.90;80.00;;;;;;5052939;28;20079;-83
2023/01/30 06:26:07;;;;;;;3.90;2.33;;;8.90;79.90;;;;;;5054904;28;20481;-82
2023/01/30 06:28:33;;;;;;;3.60;2.58;;;9.00;80.00;;;;;;5052581;28;20112;-85
2023/01/30 06:30:59;;;;;;;5.10;2.42;;;8.90;80.50;;;;;;5052581;28;20056;-80
2023/01/30 06:33:25;;;;;;;3.97;2.20;;;9.00;80.00;;;;;;5053970;28;20474;-85
2023/01/30 06:35:51;;;;;;;5.22;2.38;;;8.90;79.90;;;;;;5056846;28;20036;-84
2023/01/30 06:38:19;;;;;;;3.17;2.15;;;9.00;80.00;;;;;;5039858;28;20049;-83
2023/01/30 06:40:47;;;;;;;2.90;1.90;;;8.90;79.90;;;;;;5097058;28;20048;-86
2023/01/30 06:43:13;;;;;;;3.03;2.00;;;9.00;80.00;;;;;;5097548;28;20522;-83
2023/01/30 06:45:39;;;;;;;3.97;2.30;;;9.00;79.90;;;;;;5096434;28;20043;-82
2023/01/30 06:48:05;;;;;;;3.15;2.40;;;9.00;79.90;;;;;;5079923;28;20036;-84
2023/01/30 06:50:31;;;;;;;4.10;1.95;;;9.00;79.90;;;;;;5097739;28;20024;-84
2023/01/30 06:52:58;;;;;;;3.00;2.10;;;9.00;80.00;;;;;;5096640;28;20480;-81
2023/01/30 06:55:27;;;;;;;3.40;2.17;;;9.00;79.90;;;;;;5079397;28;20114;-80
2023/01/30 06:58:07;;;;;;;2.00;1.80;;;9.00;80.00;;;;;;5079072;28;20036;-82
2023/01/30 07:00:34;;;;;;;3.15;1.90;;;9.00;80.00;;;;;;5079489;28;20081;-82
2023/01/30 07:03:00;;;;;;;3.15;2.00;;;9.00;79.90;;;;;;5079185;28;20035;-82
2023/01/30 07:05:27;;;;;;;3.15;2.00;;;9.00;79.90;;;;;;5062453;28;20032;-81
2023/01/30 07:07:53;;;;;;;2.72;1.80;;;9.00;79.90;;;;;;5097311;28;20024;-82
2023/01/30 07:10:19;;;;;;;3.53;1.75;;;9.00;79.90;;;;;;5079019;28;20040;-81
2023/01/30 07:12:46;;;;;;;4.22;1.92;;;9.00;79.90;;;;;;5062107;28;20027;-82
2023/01/30 07:15:12;;;;;;;4.57;2.05;;;9.00;80.60;;;;;;5078878;28;20378;-81
2023/01/30 07:17:40;;;;;;;2.90;1.80;;;9.00;79.90;;;;;;5079240;28;20039;-82
2023/01/30 07:20:06;;;;;;;4.22;1.98;;;9.00;80.00;;;;;;5079219;28;20035;-81
2023/01/30 07:22:32;;;;;;;3.25;1.70;;;9.00;79.90;;;;;;5095911;28;20027;-83
2023/01/30 07:24:58;;;;;;;2.45;1.73;;;8.90;79.90;;;;;;5061890;28;20131;-83
2023/01/30 07:27:23;;;;;;;3.97;1.88;;;8.90;79.90;;;;;;5062291;28;20020;-83
2023/01/30 07:29:49;;;;;;;3.33;1.90;;;8.90;79.90;;;;;;5078927;28;20028;-82
2023/01/30 07:32:18;;;;;;;4.28;2.33;;;8.90;79.90;;;;;;5078913;28;20055;-83
2023/01/30 07:34:45;;;;;;;5.80;2.47;;;8.90;79.90;;;;;;5097073;28;20032;-82
2023/01/30 07:37:11;;;;;;;4.85;1.90;;;8.90;79.90;;;;;;5078863;28;20115;-82
2023/01/30 07:39:36;;;;;;;2.58;1.70;;;8.90;79.90;;;;;;5096729;28;20044;-82
2023/01/30 07:42:03;;;;;;;3.45;1.80;;;8.90;80.00;;;;;;5096546;28;20047;-82
2023/01/30 07:44:29;;;;;;;3.80;1.90;;;8.90;80.00;;;;;;5077637;28;20052;-83
2023/01/30 07:46:55;;;;;;;3.58;1.80;;;8.80;79.90;;;;;;5078613;28;20116;-81
2023/01/30 07:49:21;;;;;;;4.40;1.83;;;8.80;79.90;;;;;;5062029;28;20024;-82
2023/01/30 07:51:46;;;;;;;4.60;2.20;;;8.80;79.90;;;;;;5062181;28;20024;-82
2023/01/30 07:54:12;;;;;;;3.85;1.85;;;8.80;79.90;;;;;;5061849;28;20096;-83
2023/01/30 07:56:38;;;;;;;2.95;1.98;;;8.80;79.90;;;;;;5061551;28;20028;-82
2023/01/30 07:59:04;;;;;;;4.38;2.05;;;8.80;79.90;;;;;;5095005;28;20028;-81
2023/01/30 08:01:31;;;;;;;4.22;2.05;;;8.80;79.90;;;;;;5061409;28;20107;-82
2023/01/30 08:03:57;;;;;;;3.35;1.75;;;8.80;80.00;;;;;;5077901;28;20028;-81
2023/01/30 08:06:23;;;;;;;3.17;1.70;;;8.80;80.00;;;;;;5078361;28;20036;-80
2023/01/30 08:08:49;;;;;;;3.30;1.70;;;8.80;79.90;;;;;;5095184;28;20370;-81
2023/01/30 08:11:14;;;;;;;4.18;1.80;;;8.80;79.90;;;;;;5077916;28;20024;-79
2023/01/30 08:13:40;;;;;;;2.80;1.77;;;8.80;80.00;;;;;;5077834;28;20031;-81
2023/01/30 08:16:07;;;;;;;3.33;1.75;;;8.80;80.00;;;;;;5061302;28;20479;-81
2023/01/30 08:18:33;;;;;;;4.00;2.25;;;8.70;79.90;;;;;;5094732;28;20035;-82
2023/01/30 08:21:04;;;;;;;4.70;1.88;;;8.80;80.00;;;;;;5060750;28;20034;-83
2023/01/30 08:23:31;;;;;;;4.57;1.83;;;8.80;80.00;;;;;;5077890;28;20032;-83
2023/01/30 08:25:59;;;;;;;2.50;1.65;;;8.70;79.90;;;;;;5077774;28;20028;-84
2023/01/30 08:28:25;;;;;;;5.00;1.90;;;8.70;79.90;;;;;;5095476;28;20052;-85
2023/01/30 08:30:52;;;;;;;4.45;1.67;;;8.70;79.80;;;;;;5095216;28;20480;-86
2023/01/30 08:33:18;;;;;;;4.45;2.45;;;8.70;79.90;;;;;;5077622;28;20472;-82
2023/01/30 08:35:44;;;;;;;4.85;1.80;;;8.70;79.90;;;;;;5077317;28;20055;-85
2023/01/30 08:38:10;;;;;;;3.25;1.88;;;8.70;79.90;;;;;;5077636;28;20052;-82
2023/01/30 08:40:37;;;;;;;4.38;1.70;;;8.70;79.80;;;;;;5060498;28;20052;-83
2023/01/30 08:43:02;;;;;;;5.95;2.30;;;8.70;79.90;;;;;;5094217;28;20354;-83
2023/01/30 08:45:29;;;;;;;4.70;1.85;;;8.70;79.80;;;;;;5078070;28;20047;-83
2023/01/30 08:48:05;;;;;;;4.10;1.90;;;8.70;79.80;;;;;;5060866;28;20119;-82
2023/01/30 08:50:32;;;;;;;3.83;1.95;;;8.70;79.80;;;;;;5077825;28;20039;-83
2023/01/30 08:53:03;;;;;;;4.43;1.85;;;8.70;79.90;;;;;;5076978;28;20028;-82
2023/01/30 08:55:29;;;;;;;4.22;2.08;;;8.60;79.80;;;;;;5077671;28;20468;-81
2023/01/30 08:57:55;;;;;;;6.10;1.77;;;8.60;79.80;;;;;;5076994;28;20016;-83
2023/01/30 09:00:21;;;;;;;5.43;2.55;;;8.70;79.90;;;;;;5076808;28;20119;-82
2023/01/30 09:02:47;;;;;;;3.05;1.55;;;8.60;79.80;;;;;;5077755;28;20123;-81
2023/01/30 09:05:13;;;;;;;4.32;1.75;;;8.60;79.80;;;;;;5077106;28;20401;-83
2023/01/30 09:07:38;;;;;;;5.30;1.98;;;8.60;79.80;;;;;;5076734;28;20081;-82
2023/01/30 09:10:05;;;;;;;3.28;1.55;;;8.60;79.80;;;;;;5060258;28;20052;-82
2023/01/30 09:12:30;;;;;;;5.57;2.30;;;8.60;79.80;;;;;;5094732;28;20026;-81
2023/01/30 09:14:57;;;;;;;4.32;1.92;;;8.60;79.80;;;;;;5059947;28;20032;-82
2023/01/30 09:17:23;;;;;;;5.03;1.70;;;8.60;79.80;;;;;;5076886;28;20032;-83
2023/01/30 09:19:49;;;;;;;6.78;2.30;;;8.60;79.80;;;;;;5077224;28;20099;-81
2023/01/30 09:22:15;;;;;;;3.50;1.90;;;8.60;79.80;;;;;;5076330;28;20146;-82
2023/01/30 09:24:41;;;;;;;3.58;2.05;;;8.60;79.80;;;;;;5077308;28;20124;-83
2023/01/30 09:27:07;;;;;;;4.35;1.63;;;8.60;79.80;;;;;;5077314;28;20446;-82
2023/01/30 09:29:33;;;;;;;4.75;2.08;;;8.60;79.80;;;;;;5076721;28;20381;-82
2023/01/30 09:31:58;;;;;;;3.50;1.60;;;8.60;79.80;;;;;;5060520;28;20024;-82
2023/01/30 09:34:28;;;;;;;5.03;1.83;;;8.60;79.80;;;;;;5076962;28;20411;-81
2023/01/30 09:36:56;;;;;;;3.90;2.10;;;8.60;79.70;;;;;;5094782;28;20070;-82
2023/01/30 09:39:23;;;;;;;6.20;1.88;;;8.70;80.40;;;;;;5076695;28;20051;-82
2023/01/30 09:42:00;;;;;;;4.13;1.60;;;8.70;79.80;;;;;;5076536;28;20040;-82
2023/01/30 09:44:44;;;;;;;4.68;1.70;;;8.70;79.80;;;;;;5077411;28;20028;-81
2023/01/30 09:47:13;;;;;;;6.20;1.95;;;8.70;79.80;;;;;;5094774;28;20436;-82
2023/01/30 09:50:12;;;;;;;5.45;2.08;;;8.70;79.70;;;;;;5094586;28;20024;-82
2023/01/30 09:52:37;;;;;;;4.32;1.60;;;8.70;79.80;;;;;;5077409;28;20255;-82
2023/01/30 09:55:20;;;;;;;2.92;1.55;;;8.70;79.70;;;;;;5094898;28;20109;-82
2023/01/30 09:57:47;;;;;;;4.80;1.90;;;8.70;79.80;;;;;;5076523;28;20054;-82
2023/01/30 10:00:23;;;;;;;4.57;1.95;;;8.70;79.70;;;;;;5076486;28;20047;-83
2023/01/30 10:02:59;;;;;;;3.20;1.83;;;8.70;79.70;;;;;;5077013;28;20067;-84
2023/01/30 10:05:47;;;;;;;3.15;1.67;;;8.70;79.70;;;;;;5093691;28;20028;-81
2023/01/30 10:08:34;;;;;;;3.92;1.77;;;8.80;79.80;;;;;;5095446;28;20424;-81
2023/01/30 10:11:24;;;;;;;4.03;1.80;;;8.80;79.70;;;;;;5097818;28;20028;-81
2023/01/30 10:14:08;;;;;;;4.88;2.00;;;8.80;79.70;;;;;;5080596;28;20514;-81
2023/01/30 10:16:57;;;;;;;3.63;1.80;;;8.80;79.70;;;;;;5098108;28;20111;-81
2023/01/30 10:19:36;;;;;;;4.25;1.80;;;8.80;79.70;;;;;;5080608;28;20032;-82
2023/01/30 10:22:07;;;;;;;3.42;1.60;;;8.80;79.70;;;;;;5079987;28;20032;-81
2023/01/30 10:24:41;;;;;;;4.13;1.55;;;8.80;79.70;;;;;;5080609;28;20028;-81
2023/01/30 10:27:15;;;;;;;5.53;1.75;;;8.80;79.70;;;;;;5080766;28;20084;-80
2023/01/30 10:30:03;;;;;;;3.28;1.60;;;8.90;79.70;;;;;;5079795;28;20016;-82
2023/01/30 10:32:47;;;;;;;3.40;1.75;;;8.90;79.70;;;;;;5098252;28;20028;-82
2023/01/30 10:35:22;;;;;;;4.05;1.85;;;8.90;79.60;;;;;;5097891;28;20043;-80
2023/01/30 10:38:16;;;;;;;2.58;1.48;;;8.90;79.60;;;;;;5097777;28;20054;-82
2023/01/30 10:40:59;;;;;;;3.53;1.70;;;8.90;79.60;;;;;;5079632;28;20138;-81
2023/01/30 10:43:35;;;;;;;4.65;1.90;;;8.90;79.60;;;;;;5098245;28;20036;-81
2023/01/30 10:46:16;;;;;;;5.38;2.13;;;9.00;79.60;;;;;;5062902;28;20039;-81
2023/01/30 10:49:01;;;;;;;4.55;1.73;;;9.00;79.70;;;;;;5079604;28;20024;-82
2023/01/30 10:51:41;;;;;;;3.40;1.63;;;9.00;79.70;;;;;;5097328;28;20514;-81
2023/01/30 10:54:32;;;;;;;4.43;1.50;;;9.00;79.70;;;;;;5063054;28;20071;-81
2023/01/30 10:57:04;;;;;;;3.40;1.65;;;9.10;79.70;;;;;;5097794;28;20031;-80
2023/01/30 11:00:04;;;;;;;4.30;1.80;;;9.00;79.60;;;;;;5079979;28;20036;-82
2023/01/30 11:02:42;;;;;;;4.75;1.90;;;9.10;79.70;;;;;;5058382;28;20036;-82
2023/01/30 11:05:15;;;;;;;4.13;1.80;;;9.10;79.60;;;;;;5079284;28;20036;-81
2023/01/30 11:07:44;;;;;;;3.83;1.95;;;9.10;79.70;;;;;;5062748;28;20024;-82
2023/01/30 11:10:31;;;;;;;4.40;1.83;;;9.10;79.60;;;;;;5062364;28;20020;-82
2023/01/30 11:13:31;;;;;;;3.45;1.88;;;9.10;79.70;;;;;;5097535;28;20038;-81
2023/01/30 11:16:02;;;;;;;3.22;1.88;;;9.10;79.60;;;;;;5056597;28;20094;-81
2023/01/30 11:18:28;;;;;;;5.50;2.08;;;9.20;79.60;;;;;;5079291;28;20052;-81
2023/01/30 11:21:07;;;;;;;4.28;1.77;;;9.20;79.60;;;;;;5061700;28;20450;-81
2023/01/30 11:23:38;;;;;;;4.07;1.90;;;9.20;79.70;;;;;;5062356;28;20032;-79
2023/01/30 11:26:04;;;;;;;4.75;1.50;;;9.20;79.60;;;;;;5096678;28;20127;-82
2023/01/30 11:28:39;;;;;;;3.35;1.77;;;9.20;79.60;;;;;;5079047;28;20046;-82
2023/01/30 11:31:13;;;;;;;;;;;9.30;79.60;;;;;;5079665;28;20024;-83
2023/01/30 11:33:39;;;;;;;3.78;1.80;;;9.30;79.60;;;;;;5078820;28;19908;-82
2023/01/30 11:36:24;;;;;;;4.28;1.75;;;9.30;79.40;;;;;;5095638;28;20028;-82
2023/01/30 11:38:59;;;;;;;2.47;1.60;;;9.40;79.60;;;;;;5078828;28;20129;-82
2023/01/30 11:41:26;;;;;;;5.75;2.33;;;9.30;79.50;;;;;;5061803;28;20034;-82
2023/01/30 11:44:00;;;;;;;5.47;1.90;;;9.30;79.50;;;;;;5078736;28;20475;-84
2023/01/30 11:46:39;;;;;;;4.53;1.80;;;9.40;79.50;;;;;;5078405;28;20377;-82
2023/01/30 11:49:17;;;;;;;2.40;1.50;;;9.40;79.50;;;;;;5078468;28;20054;-84
2023/01/30 11:51:46;;;;;;;5.35;1.73;;;9.40;79.50;;;;;;5096121;28;20027;-82
2023/01/30 11:54:17;;;;;;;4.03;1.60;;;9.40;79.50;;;;;;5078309;28;20065;-82
2023/01/30 11:56:53;;;;;;;5.63;1.90;;;9.50;79.50;;;;;;5077973;28;20071;-82
2023/01/30 11:59:46;;;;;;;4.68;1.85;;;9.50;79.80;;;;;;5061202;28;20028;-80
2023/01/30 12:02:30;;;;;;;3.50;1.65;;;9.50;79.50;;;;;;5078063;28;20480;-81
2023/01/30 12:05:04;;;;;;;6.50;2.30;;;9.50;79.40;;;;;;5078359;28;20039;-82
2023/01/30 12:07:32;;;;;;;4.25;1.75;;;9.60;79.50;;;;;;5078033;28;20063;-81
2023/01/30 12:09:58;;;;;;;6.28;2.08;;;9.60;79.50;;;;;;5060951;28;20024;-82
2023/01/30 12:12:40;;;;;;;6.22;1.90;;;9.60;79.50;;;;;;5077935;28;20032;-81
2023/01/30 12:15:28;;;;;;;4.38;1.80;;;9.70;79.50;;;;;;5078254;28;20032;-83
2023/01/30 12:18:17;;;;;;;5.90;2.00;;;9.70;79.50;;;;;;5061132;28;20464;-81
2023/01/30 12:20:45;;;;;;;5.63;2.03;;;9.70;79.50;;;;;;5078440;28;20024;-83
2023/01/30 12:23:17;;;;;;;2.03;1.48;;;9.80;79.50;;;;;;5077461;28;20099;-83
2023/01/30 12:25:57;;;;;;;4.63;1.70;;;9.80;79.50;;;;;;5077251;28;20046;-85
2023/01/30 12:28:48;;;;;;;3.60;1.70;;;9.80;79.50;;;;;;5077449;28;20483;-82
2023/01/30 12:31:34;;;;;;;6.47;2.10;;;9.90;79.50;;;;;;5077701;28;20024;-82
2023/01/30 12:34:01;;;;;;;6.18;1.80;;;9.80;79.40;;;;;;5077391;28;20024;-81
2023/01/30 12:37:07;;;;;;;4.35;1.70;;;9.90;79.40;;;;;;5076418;28;20090;-79
2023/01/30 12:39:45;;;;;;;6.30;1.80;;;9.90;79.50;;;;;;5060352;28;20055;-82
2023/01/30 12:42:29;;;;;;;3.05;1.67;;;9.90;79.40;;;;;;5077519;28;20031;-83
2023/01/30 12:45:10;;;;;;;5.28;1.75;;;10.00;79.40;;;;;;5060438;28;20033;-82
2023/01/30 12:48:05;;;;;;;5.55;1.90;;;10.00;79.40;;;;;;5077791;28;20028;-82
2023/01/30 12:51:09;;;;;;;7.13;2.05;;;10.00;79.50;;;;;;5064171;28;20047;-82
2023/01/30 12:54:06;;;;;;;4.22;1.67;;;10.00;79.40;;;;;;5077361;28;20035;-82
2023/01/30 12:56:44;;;;;;;6.18;1.90;;;10.00;79.40;;;;;;5060832;28;20035;-83
2023/01/30 12:59:15;;;;;;;3.60;1.60;;;10.10;79.40;;;;;;5095188;28;20063;-83
2023/01/30 13:01:59;;;;;;;6.00;1.90;;;10.10;79.40;;;;;;5076665;28;20409;-83
2023/01/30 13:04:47;;;;;;;5.53;1.98;;;10.10;79.40;;;;;;5076761;28;20029;-82
2023/01/30 13:07:20;;;;;;;5.47;2.00;;;10.20;79.50;;;;;;5095538;28;20098;-83
2023/01/30 13:10:10;;;;;;;4.72;1.77;;;10.20;79.40;;;;;;5095448;28;20038;-83
2023/01/30 13:12:45;;;;;;;5.05;2.20;;;10.20;79.40;;;;;;5076996;28;20449;-83
2023/01/30 13:15:33;;;;;;;3.83;1.83;;;10.20;79.40;;;;;;5095388;28;20047;-83
2023/01/30 13:18:31;;;;;;;5.75;1.83;;;10.20;79.40;;;;;;5077243;28;20023;-83
2023/01/30 13:21:14;;;;;;;6.63;2.13;;;10.20;80.00;;;;;;5051607;28;20036;-82
2023/01/30 13:23:42;;;;;;;4.38;1.88;;;10.30;79.40;;;;;;5077133;28;20422;-83
2023/01/30 13:26:33;;;;;;;6.60;2.13;;;10.30;79.40;;;;;;5094631;28;20484;-83